createdAt,value
2019-05-04T00:00:51.898Z,97.40
2019-05-04T00:03:24.968Z,97.50
2019-05-04T00:05:59.455Z,97.30
2019-05-04T00:08:30.412Z,97.30
2019-05-04T00:11:00.926Z,97.70
2019-05-04T00:13:31.680Z,98.00
2019-05-04T00:16:02.474Z,98.00
2019-05-04T00:18:32.991Z,98.10
2019-05-04T00:21:04.606Z,98.30
2019-05-04T00:23:35.722Z,98.20
2019-05-04T00:26:06.253Z,98.00
2019-05-04T00:28:36.776Z,98.00
2019-05-04T00:31:08.352Z,98.20
2019-05-04T00:33:45.318Z,98.20
2019-05-04T00:36:20.194Z,98.10
2019-05-04T00:38:50.740Z,98.30
2019-05-04T00:41:21.529Z,99.00
2019-05-04T00:43:54.694Z,99.00
2019-05-04T00:46:25.381Z,99.10
2019-05-04T00:48:57.434Z,99.00
2019-05-04T00:51:28.170Z,98.90
2019-05-04T00:53:59.067Z,99.10
2019-05-04T00:56:36.113Z,99.30
2019-05-04T00:59:09.594Z,99.60
2019-05-04T01:01:59.139Z,99.90
2019-05-04T01:04:29.943Z,99.90
2019-05-04T01:07:00.868Z,99.90
2019-05-04T01:09:31.808Z,99.90
2019-05-04T01:12:04.567Z,99.90
2019-05-04T01:14:35.235Z,99.90
2019-05-04T01:17:06.480Z,99.90
2019-05-04T01:19:37.018Z,99.90
2019-05-04T01:22:08.161Z,99.90
2019-05-04T01:24:39.100Z,99.90
2019-05-04T01:27:10.247Z,99.90
2019-05-04T01:29:41.417Z,99.90
2019-05-04T01:32:12.275Z,99.90
2019-05-04T01:35:08.284Z,99.90
2019-05-04T01:37:48.641Z,99.90
2019-05-04T01:40:37.408Z,99.90
2019-05-04T01:43:07.781Z,99.90
2019-05-04T01:45:38.475Z,99.90
2019-05-04T01:48:09.007Z,99.90
2019-05-04T01:50:39.527Z,99.90
2019-05-04T01:53:25.353Z,99.90
2019-05-04T01:56:11.342Z,99.90
2019-05-04T01:58:49.425Z,99.90
2019-05-04T02:01:19.507Z,99.90
2019-05-04T02:03:50.299Z,99.90
2019-05-04T02:06:21.441Z,99.90
2019-05-04T02:08:57.937Z,99.90
2019-05-04T02:11:28.863Z,99.90
2019-05-04T02:14:00.011Z,99.90
2019-05-04T02:16:30.743Z,99.90
2019-05-04T02:19:02.095Z,99.90
2019-05-04T02:21:35.378Z,99.90
2019-05-04T02:24:06.434Z,99.90
2019-05-04T02:27:08.320Z,99.90
2019-05-04T02:29:55.644Z,99.90
2019-05-04T02:32:28.223Z,99.90
2019-05-04T02:34:58.295Z,99.90
2019-05-04T02:37:29.705Z,99.90
2019-05-04T02:40:00.253Z,99.90
2019-05-04T02:42:31.149Z,99.90
2019-05-04T02:45:01.517Z,99.90
2019-05-04T02:47:39.527Z,99.90
2019-05-04T02:50:16.823Z,99.90
2019-05-04T02:52:48.053Z,99.90
2019-05-04T02:55:18.622Z,99.90
2019-05-04T02:57:49.527Z,99.90
2019-05-04T03:00:20.398Z,99.90
2019-05-04T03:02:51.369Z,99.90
2019-05-04T03:05:28.723Z,99.90
2019-05-04T03:07:59.659Z,99.90
2019-05-04T03:10:30.114Z,99.90
2019-05-04T03:13:01.330Z,99.90
2019-05-04T03:15:31.455Z,99.90
2019-05-04T03:18:09.983Z,99.90
2019-05-04T03:21:05.748Z,99.90
2019-05-04T03:23:40.466Z,99.90
2019-05-04T03:26:10.466Z,99.90
2019-05-04T03:28:46.007Z,99.90
2019-05-04T03:31:18.906Z,99.90
2019-05-04T03:33:49.072Z,99.90
2019-05-04T03:36:24.018Z,99.90
2019-05-04T03:38:57.046Z,99.90
2019-05-04T03:41:25.878Z,99.90
2019-05-04T03:43:57.317Z,99.90
2019-05-04T03:46:55.984Z,99.90
2019-05-04T03:49:36.280Z,99.90
2019-05-04T03:52:06.995Z,99.90
2019-05-04T03:54:38.156Z,99.90
2019-05-04T03:57:09.291Z,99.90
2019-05-04T03:59:39.877Z,99.90
2019-05-04T04:02:11.171Z,99.90
2019-05-04T04:04:41.858Z,99.90
2019-05-04T04:07:15.422Z,99.90
2019-05-04T04:09:46.055Z,99.90
2019-05-04T04:12:16.588Z,99.90
2019-05-04T04:14:47.741Z,99.90
2019-05-04T04:17:36.713Z,99.90
2019-05-04T04:20:07.056Z,99.90
2019-05-04T04:22:39.220Z,99.90
2019-05-04T04:25:15.891Z,99.90
2019-05-04T04:27:48.878Z,99.90
2019-05-04T04:30:20.630Z,99.90
2019-05-04T04:32:51.778Z,99.90
2019-05-04T04:35:22.362Z,99.90
2019-05-04T04:37:53.094Z,99.90
2019-05-04T04:40:25.737Z,99.90
2019-05-04T04:42:56.507Z,99.90
2019-05-04T04:45:27.527Z,99.90
2019-05-04T04:47:58.445Z,99.90
2019-05-04T04:50:37.852Z,99.90
2019-05-04T04:53:08.537Z,99.90
2019-05-04T04:55:39.347Z,99.90
2019-05-04T04:58:16.046Z,99.90
2019-05-04T05:01:09.225Z,99.90
2019-05-04T05:03:39.345Z,99.90
2019-05-04T05:06:10.327Z,99.90
2019-05-04T05:08:41.032Z,99.90
2019-05-04T05:11:11.967Z,99.90
2019-05-04T05:13:42.712Z,99.90
2019-05-04T05:16:14.710Z,99.90
2019-05-04T05:18:45.222Z,99.90
2019-05-04T05:21:21.070Z,99.90
2019-05-04T05:23:51.822Z,99.90
2019-05-04T05:26:24.468Z,99.90
2019-05-04T05:28:55.502Z,99.90
2019-05-04T05:31:42.047Z,99.90
2019-05-04T05:34:44.478Z,99.90
2019-05-04T05:37:15.479Z,99.90
2019-05-04T05:39:57.643Z,99.90
2019-05-04T05:42:19.221Z,99.90
2019-05-04T05:44:50.269Z,99.90
2019-05-04T05:47:49.281Z,99.90
2019-05-04T05:50:29.170Z,99.90
2019-05-04T05:53:26.469Z,99.90
2019-05-04T05:56:24.923Z,99.90
2019-05-04T05:59:24.522Z,99.90
2019-05-04T06:02:16.306Z,99.90
2019-05-04T06:05:09.370Z,99.90
2019-05-04T06:08:05.442Z,99.90
2019-05-04T06:10:37.877Z,99.90
2019-05-04T06:13:35.151Z,99.90
2019-05-04T06:16:14.977Z,99.90
2019-05-04T06:18:54.990Z,99.90
2019-05-04T06:21:37.053Z,99.90
2019-05-04T06:24:16.955Z,99.90
2019-05-04T06:27:16.082Z,99.90
2019-05-04T06:29:54.374Z,99.90
2019-05-04T06:32:29.262Z,99.90
2019-05-04T06:35:24.297Z,99.90
2019-05-04T06:38:08.465Z,99.90
2019-05-04T06:40:39.463Z,99.90
2019-05-04T06:43:30.533Z,99.90
2019-05-04T06:46:09.451Z,99.90
2019-05-04T06:48:40.454Z,99.90
2019-05-04T06:51:30.028Z,99.90
2019-05-04T06:54:07.316Z,99.90
2019-05-04T06:57:12.999Z,99.90
2019-05-04T06:59:41.700Z,99.90
2019-05-04T07:02:14.881Z,99.90
2019-05-04T07:04:47.935Z,99.90
2019-05-04T07:07:22.134Z,99.90
2019-05-04T07:09:50.886Z,99.90
2019-05-04T07:12:26.050Z,99.90
2019-05-04T07:14:55.379Z,99.90
2019-05-04T07:17:26.370Z,99.90
2019-05-04T07:20:00.309Z,99.90
2019-05-04T07:22:39.254Z,99.90
2019-05-04T07:25:01.451Z,99.90
2019-05-04T07:27:34.582Z,99.90
2019-05-04T07:30:07.214Z,99.90
2019-05-04T07:32:38.661Z,99.90
2019-05-04T07:35:11.638Z,99.90
2019-05-04T07:37:53.229Z,99.90
2019-05-04T07:40:33.197Z,99.90
2019-05-04T07:43:05.911Z,99.90
2019-05-04T07:45:37.046Z,99.90
2019-05-04T07:48:09.100Z,99.90
2019-05-04T07:50:42.113Z,99.90
2019-05-04T07:53:15.727Z,99.90
2019-05-04T07:55:46.350Z,99.90
2019-05-04T07:58:16.633Z,99.90
2019-05-04T08:00:49.604Z,99.90
2019-05-04T08:03:24.719Z,99.90
2019-05-04T08:05:52.576Z,99.90
2019-05-04T08:08:29.984Z,99.90
2019-05-04T08:11:08.550Z,99.90
2019-05-04T08:13:35.027Z,99.90
2019-05-04T08:16:09.976Z,99.90
2019-05-04T08:18:38.919Z,99.90
2019-05-04T08:21:14.740Z,99.90
2019-05-04T08:23:45.161Z,99.90
2019-05-04T08:26:19.897Z,99.90
2019-05-04T08:28:49.504Z,99.90
2019-05-04T08:31:27.523Z,99.90
2019-05-04T08:33:54.453Z,99.90
2019-05-04T08:36:25.401Z,99.90
2019-05-04T08:38:55.523Z,99.90
2019-05-04T08:41:26.398Z,99.90
2019-05-04T08:43:58.293Z,99.90
2019-05-04T08:46:39.851Z,99.90
2019-05-04T08:49:11.918Z,99.90
2019-05-04T08:52:03.020Z,99.90
2019-05-04T08:54:29.111Z,99.90
2019-05-04T08:57:16.573Z,99.90
2019-05-04T08:59:49.477Z,99.90
2019-05-04T09:02:30.509Z,99.90
2019-05-04T09:04:58.820Z,99.90
2019-05-04T09:07:29.159Z,99.90
2019-05-04T09:10:05.196Z,99.90
2019-05-04T09:12:41.013Z,99.90
2019-05-04T09:15:13.374Z,99.90
2019-05-04T09:17:43.119Z,99.90
2019-05-04T09:20:14.980Z,99.90
2019-05-04T09:22:47.680Z,99.90
2019-05-04T09:25:19.789Z,99.90
2019-05-04T09:27:51.342Z,99.90
2019-05-04T09:30:25.022Z,99.90
2019-05-04T09:33:00.094Z,99.90
2019-05-04T09:35:28.158Z,99.90
2019-05-04T09:37:59.050Z,99.90
2019-05-04T09:40:29.654Z,99.90
2019-05-04T09:43:11.996Z,99.90
2019-05-04T09:45:34.227Z,99.90
2019-05-04T09:48:09.935Z,99.90
2019-05-04T09:50:42.975Z,99.90
2019-05-04T09:53:21.545Z,99.90
2019-05-04T09:55:50.232Z,99.90
2019-05-04T09:58:30.097Z,99.90
2019-05-04T10:00:57.052Z,99.90
2019-05-04T10:03:27.929Z,99.90
2019-05-04T10:06:01.388Z,99.90
2019-05-04T10:08:30.620Z,99.90
2019-05-04T10:11:17.831Z,99.90
2019-05-04T10:13:56.841Z,99.90
2019-05-04T10:17:05.278Z,99.90
2019-05-04T10:19:35.902Z,99.90
2019-05-04T10:22:06.398Z,99.90
2019-05-04T10:24:44.951Z,99.90
2019-05-04T10:27:21.782Z,99.90
2019-05-04T10:29:54.487Z,99.90
2019-05-04T10:32:25.362Z,99.90
2019-05-04T10:34:56.108Z,99.90
2019-05-04T10:37:27.053Z,99.90
2019-05-04T10:39:57.795Z,99.90
2019-05-04T10:42:28.342Z,99.90
2019-05-04T10:44:59.184Z,99.90
2019-05-04T10:47:29.956Z,99.90
2019-05-04T10:50:01.922Z,99.90
2019-05-04T10:52:33.340Z,99.90
2019-05-04T10:55:04.250Z,99.90
2019-05-04T10:57:34.958Z,99.90
2019-05-04T11:00:09.638Z,99.90
2019-05-04T11:02:41.081Z,99.90
2019-05-04T11:05:15.192Z,99.90
2019-05-04T11:07:45.695Z,99.90
2019-05-04T11:10:16.106Z,99.90
2019-05-04T11:12:48.448Z,99.90
2019-05-04T11:15:20.005Z,99.90
2019-05-04T11:17:50.945Z,99.90
2019-05-04T11:20:24.393Z,99.90
2019-05-04T11:22:55.696Z,99.90
2019-05-04T11:25:45.711Z,99.90
2019-05-04T11:28:18.269Z,99.90
2019-05-04T11:30:49.205Z,99.90
2019-05-04T11:33:19.423Z,99.90
2019-05-04T11:35:49.665Z,99.90
2019-05-04T11:38:20.617Z,99.90
2019-05-04T11:40:51.347Z,99.90
2019-05-04T11:43:29.469Z,99.90
2019-05-04T11:45:55.077Z,99.90
2019-05-04T11:48:25.558Z,99.90
2019-05-04T11:50:55.942Z,99.90
2019-05-04T11:53:26.677Z,99.90
2019-05-04T11:55:57.413Z,99.90
2019-05-04T11:58:28.563Z,99.90
2019-05-04T12:00:59.917Z,99.90
2019-05-04T12:03:31.873Z,99.90
2019-05-04T12:06:14.741Z,99.90
2019-05-04T12:08:58.954Z,99.90
2019-05-04T12:11:29.715Z,99.90
2019-05-04T12:14:00.853Z,99.90
2019-05-04T12:16:31.772Z,99.90
2019-05-04T12:19:02.502Z,99.60
2019-05-04T12:21:33.203Z,97.10
2019-05-04T12:24:03.351Z,97.00
2019-05-04T12:26:34.273Z,97.30
2019-05-04T12:29:04.957Z,97.00
2019-05-04T12:31:36.222Z,97.00
2019-05-04T12:34:06.721Z,96.50
2019-05-04T12:36:37.019Z,95.20
2019-05-04T12:39:08.367Z,94.90
2019-05-04T12:41:40.536Z,95.30
2019-05-04T12:44:11.549Z,94.20
2019-05-04T12:46:44.590Z,93.90
2019-05-04T12:49:15.328Z,93.90
2019-05-04T12:51:46.024Z,94.50
2019-05-04T12:54:17.173Z,93.60
2019-05-04T12:56:48.112Z,93.00
2019-05-04T12:59:18.476Z,92.70
2019-05-04T13:01:49.065Z,93.10
2019-05-04T13:04:20.122Z,93.20
2019-05-04T13:06:52.635Z,91.00
2019-05-04T13:09:23.643Z,90.60
2019-05-04T13:11:55.062Z,89.60
2019-05-04T13:14:27.369Z,89.90
2019-05-04T13:17:00.110Z,89.40
2019-05-04T13:19:30.458Z,90.00
2019-05-04T13:22:01.228Z,90.90
2019-05-04T13:24:32.118Z,90.40
2019-05-04T13:27:02.397Z,89.30
2019-05-04T13:29:34.120Z,86.40
2019-05-04T13:32:06.229Z,84.30
2019-05-04T13:34:37.132Z,83.50
2019-05-04T13:37:08.152Z,83.80
2019-05-04T13:39:39.022Z,85.60
2019-05-04T13:42:10.218Z,81.00
2019-05-04T13:44:40.695Z,82.80
2019-05-04T13:47:11.201Z,80.00
2019-05-04T13:49:41.593Z,79.30
2019-05-04T13:52:12.539Z,78.30
2019-05-04T13:55:10.276Z,74.40
2019-05-04T13:57:45.146Z,77.90
2019-05-04T14:00:35.155Z,77.30
2019-05-04T14:03:18.772Z,77.70
2019-05-04T14:05:49.322Z,81.80
2019-05-04T14:08:20.054Z,74.00
2019-05-04T14:10:50.209Z,72.50
2019-05-04T14:13:20.882Z,74.20
2019-05-04T14:15:51.053Z,75.90
2019-05-04T14:18:22.186Z,78.70
2019-05-04T14:20:54.877Z,82.70
2019-05-04T14:23:26.119Z,89.60
2019-05-04T14:25:57.015Z,91.80
2019-05-04T14:28:27.603Z,93.40
2019-05-04T14:30:58.089Z,94.60
2019-05-04T14:33:28.884Z,95.70
2019-05-04T14:35:58.932Z,96.50
2019-05-04T14:38:29.733Z,97.10
2019-05-04T14:41:00.061Z,98.60
2019-05-04T14:43:34.149Z,99.20
2019-05-04T14:46:18.939Z,97.80
2019-05-04T14:48:54.583Z,96.80
2019-05-04T14:51:26.159Z,95.40
2019-05-04T14:53:58.129Z,93.90
2019-05-04T14:56:28.665Z,94.00
2019-05-04T14:58:59.566Z,93.80
2019-05-04T15:01:30.041Z,92.30
2019-05-04T15:03:59.922Z,87.00
2019-05-04T15:06:30.801Z,82.60
2019-05-04T15:09:01.631Z,81.30
2019-05-04T15:11:34.879Z,80.50
2019-05-04T15:14:06.085Z,77.60
2019-05-04T15:16:37.036Z,78.50
2019-05-04T15:19:19.848Z,77.90
2019-05-04T15:21:51.809Z,77.70
2019-05-04T15:24:22.351Z,76.70
2019-05-04T15:26:55.402Z,75.40
2019-05-04T15:29:25.694Z,75.30
2019-05-04T15:31:56.748Z,77.20
2019-05-04T15:34:28.985Z,78.30
2019-05-04T15:36:59.163Z,75.50
2019-05-04T15:39:30.048Z,76.60
2019-05-04T15:42:01.205Z,77.50
2019-05-04T15:44:32.290Z,76.40
2019-05-04T15:47:04.408Z,73.20
2019-05-04T15:49:35.261Z,74.20
2019-05-04T15:52:14.932Z,74.60
2019-05-04T15:54:57.630Z,75.70
2019-05-04T15:57:45.981Z,72.50
2019-05-04T16:00:21.842Z,73.80
2019-05-04T16:02:54.603Z,72.30
2019-05-04T16:05:25.369Z,72.60
2019-05-04T16:07:56.720Z,72.00
2019-05-04T16:10:27.454Z,72.00
2019-05-04T16:12:58.554Z,73.80
2019-05-04T16:15:39.297Z,75.30
2019-05-04T16:18:01.525Z,74.80
2019-05-04T16:20:34.984Z,75.50
2019-05-04T16:23:05.968Z,75.20
2019-05-04T16:25:36.935Z,75.30
2019-05-04T16:28:07.519Z,75.60
2019-05-04T16:30:47.098Z,73.20
2019-05-04T16:33:17.965Z,72.70
2019-05-04T16:35:48.766Z,74.30
2019-05-04T16:38:19.502Z,77.20
2019-05-04T16:40:50.244Z,74.60
2019-05-04T16:43:21.595Z,75.10
2019-05-04T16:45:56.325Z,73.10
2019-05-04T16:48:25.328Z,74.50
2019-05-04T16:51:24.938Z,74.70
2019-05-04T16:53:55.690Z,74.50
2019-05-04T16:56:26.248Z,75.30
2019-05-04T16:58:57.974Z,75.10
2019-05-04T17:01:38.232Z,74.10
2019-05-04T17:04:30.180Z,74.00
2019-05-04T17:07:00.486Z,73.70
2019-05-04T17:09:30.993Z,75.10
2019-05-04T17:12:01.770Z,76.20
2019-05-04T17:14:32.700Z,78.10
2019-05-04T17:17:05.306Z,79.50
2019-05-04T17:19:37.890Z,80.10
2019-05-04T17:22:09.949Z,80.30
2019-05-04T17:25:00.212Z,79.80
2019-05-04T17:27:58.920Z,79.90
2019-05-04T17:30:54.604Z,81.20
2019-05-04T17:33:25.782Z,80.10
2019-05-04T17:35:55.886Z,81.00
2019-05-04T17:38:26.574Z,81.50
2019-05-04T17:41:09.635Z,82.20
2019-05-04T17:44:07.994Z,82.70
2019-05-04T17:46:38.928Z,82.50
2019-05-04T17:49:11.951Z,82.20
2019-05-04T17:51:44.321Z,82.60
2019-05-04T17:54:15.308Z,83.00
2019-05-04T17:56:45.975Z,83.90
2019-05-04T17:59:16.517Z,86.60
2019-05-04T18:02:05.485Z,87.60
2019-05-04T18:04:39.506Z,86.80
2019-05-04T18:07:10.400Z,86.50
2019-05-04T18:09:41.331Z,86.00
2019-05-04T18:12:24.398Z,85.20
2019-05-04T18:15:14.611Z,85.00
2019-05-04T18:17:51.901Z,85.80
2019-05-04T18:20:22.238Z,86.50
2019-05-04T18:22:52.351Z,87.70
2019-05-04T18:25:24.766Z,88.50
2019-05-04T18:27:55.623Z,89.60
2019-05-04T18:30:35.981Z,90.20
2019-05-04T18:33:07.471Z,90.90
2019-05-04T18:35:38.947Z,91.80
2019-05-04T18:38:09.849Z,93.50
2019-05-04T18:40:44.531Z,94.40
2019-05-04T18:43:34.507Z,96.00
2019-05-04T18:46:14.637Z,96.10
2019-05-04T18:48:52.217Z,97.10
2019-05-04T18:51:24.533Z,98.50
2019-05-04T18:53:56.247Z,99.90
2019-05-04T18:56:26.841Z,99.90
2019-05-04T18:58:57.753Z,99.90
2019-05-04T19:01:28.071Z,99.90
2019-05-04T19:03:58.649Z,99.90
2019-05-04T19:06:41.271Z,99.90
2019-05-04T19:09:12.007Z,99.90
2019-05-04T19:11:44.454Z,99.90
2019-05-04T19:14:15.221Z,99.90
2019-05-04T19:16:46.853Z,99.90
2019-05-04T19:19:17.410Z,99.90
2019-05-04T19:21:48.560Z,99.90
2019-05-04T19:24:38.113Z,99.90
2019-05-04T19:27:09.093Z,99.90
2019-05-04T19:29:39.431Z,99.90
2019-05-04T19:32:09.542Z,99.90
2019-05-04T19:34:40.898Z,99.90
2019-05-04T19:37:11.547Z,99.90
2019-05-04T19:39:44.186Z,99.90
2019-05-04T19:42:22.452Z,99.90
2019-05-04T19:44:59.008Z,99.90
2019-05-04T19:47:29.942Z,99.90
2019-05-04T19:50:00.344Z,99.90
2019-05-04T19:52:30.811Z,99.90
2019-05-04T19:55:02.154Z,99.90
2019-05-04T19:57:34.302Z,99.90
2019-05-04T20:00:06.506Z,99.90
2019-05-04T20:02:38.182Z,99.90
2019-05-04T20:05:09.417Z,99.90
2019-05-04T20:07:44.669Z,99.90
2019-05-04T20:10:36.898Z,99.90
2019-05-04T20:13:08.669Z,99.90
2019-05-04T20:15:39.225Z,99.90
2019-05-04T20:18:10.348Z,99.90
2019-05-04T20:20:41.498Z,99.90
2019-05-04T20:23:11.958Z,99.90
2019-05-04T20:25:42.966Z,99.90
2019-05-04T20:28:14.872Z,99.90
2019-05-04T20:30:46.547Z,99.90
2019-05-04T20:33:17.832Z,99.90
2019-05-04T20:35:49.194Z,99.90
2019-05-04T20:38:19.735Z,99.90
2019-05-04T20:40:50.278Z,99.90
2019-05-04T20:43:21.216Z,99.90
2019-05-04T20:45:58.704Z,99.90
2019-05-04T20:48:47.872Z,99.90
2019-05-04T20:51:18.831Z,99.90
2019-05-04T20:53:53.752Z,99.90
2019-05-04T20:56:24.914Z,99.90
2019-05-04T20:58:55.256Z,99.90
2019-05-04T21:01:32.210Z,99.90
2019-05-04T21:04:14.359Z,99.90
2019-05-04T21:06:49.259Z,99.90
2019-05-04T21:09:19.598Z,99.90
2019-05-04T21:11:50.489Z,99.90
2019-05-04T21:14:21.276Z,99.90
2019-05-04T21:17:01.029Z,99.90
2019-05-04T21:19:56.679Z,99.90
2019-05-04T21:22:27.617Z,99.90
2019-05-04T21:24:58.834Z,99.90
2019-05-04T21:27:29.998Z,99.90
2019-05-04T21:30:01.293Z,99.90
2019-05-04T21:32:32.441Z,99.90
2019-05-04T21:35:05.161Z,99.90
2019-05-04T21:37:36.629Z,99.90
2019-05-04T21:40:10.478Z,99.90
2019-05-04T21:42:41.188Z,99.90
2019-05-04T21:45:27.990Z,99.90
2019-05-04T21:48:20.578Z,99.90
2019-05-04T21:50:51.812Z,99.90
2019-05-04T21:53:23.245Z,99.90
2019-05-04T21:55:54.981Z,99.90
2019-05-04T21:58:26.651Z,99.90
2019-05-04T22:01:28.646Z,99.90
2019-05-04T22:04:09.363Z,99.90
2019-05-04T22:06:40.912Z,99.90
2019-05-04T22:09:14.355Z,99.90
2019-05-04T22:11:45.239Z,99.90
2019-05-04T22:14:16.491Z,99.90
2019-05-04T22:16:47.804Z,99.90
2019-05-04T22:19:18.349Z,99.90
2019-05-04T22:21:49.293Z,99.90
2019-05-04T22:24:20.239Z,99.90
2019-05-04T22:26:50.774Z,99.90
2019-05-04T22:29:24.124Z,99.90
2019-05-04T22:31:54.939Z,99.90
2019-05-04T22:34:25.597Z,99.90
2019-05-04T22:37:10.615Z,99.90
2019-05-04T22:39:40.985Z,99.90
2019-05-04T22:42:11.982Z,99.90
2019-05-04T22:44:44.294Z,99.90
2019-05-04T22:47:15.713Z,99.90
2019-05-04T22:49:45.998Z,99.90
2019-05-04T22:52:25.596Z,99.90
2019-05-04T22:55:08.008Z,99.90
2019-05-04T22:58:08.239Z,99.90
2019-05-04T23:00:49.014Z,99.90
2019-05-04T23:03:21.608Z,99.90
2019-05-04T23:05:52.951Z,99.90
2019-05-04T23:08:26.257Z,99.90
2019-05-04T23:10:55.182Z,99.90
2019-05-04T23:13:25.293Z,99.90
2019-05-04T23:15:56.310Z,99.90
2019-05-04T23:18:27.023Z,99.90
2019-05-04T23:20:59.019Z,99.90
2019-05-04T23:23:31.188Z,99.90
2019-05-04T23:26:04.245Z,99.90
2019-05-04T23:28:34.657Z,99.90
2019-05-04T23:31:05.604Z,99.90
2019-05-04T23:33:37.214Z,99.90
2019-05-04T23:36:09.328Z,99.90
2019-05-04T23:38:40.330Z,99.90
2019-05-04T23:41:11.476Z,99.90
2019-05-04T23:43:41.951Z,99.90
2019-05-04T23:46:14.851Z,99.90
2019-05-04T23:48:46.760Z,99.90
2019-05-04T23:51:17.493Z,99.90
2019-05-04T23:53:47.832Z,99.90
2019-05-04T23:56:19.184Z,99.90
2019-05-04T23:59:00.398Z,99.90
